createdAt,value
2018-01-14T00:00:05.384Z,2.73
2018-01-14T00:02:32.895Z,2.72
2018-01-14T00:05:00.436Z,2.71
2018-01-14T00:07:27.913Z,2.71
2018-01-14T00:09:55.546Z,2.66
2018-01-14T00:12:23.059Z,2.60
2018-01-14T00:14:50.550Z,2.56
2018-01-14T00:17:18.026Z,2.54
2018-01-14T00:19:45.573Z,2.50
2018-01-14T00:22:13.074Z,2.47
2018-01-14T00:24:40.561Z,2.42
2018-01-14T00:27:08.123Z,2.41
2018-01-14T00:29:35.569Z,2.40
2018-01-14T00:32:03.114Z,2.40
2018-01-14T00:34:30.608Z,2.31
2018-01-14T00:36:58.472Z,2.21
2018-01-14T00:39:25.918Z,2.18
2018-01-14T00:41:53.437Z,2.18
2018-01-14T00:44:20.973Z,2.18
2018-01-14T00:46:48.481Z,2.17
2018-01-14T00:49:15.987Z,2.09
2018-01-14T00:51:43.444Z,2.15
2018-01-14T00:54:10.912Z,2.10
2018-01-14T00:56:38.487Z,2.05
2018-01-14T00:59:05.978Z,2.07
2018-01-14T01:01:33.503Z,2.10
2018-01-14T01:04:00.965Z,2.08
2018-01-14T01:06:28.543Z,2.02
2018-01-14T01:08:56.022Z,2.04
2018-01-14T01:11:23.490Z,2.02
2018-01-14T01:13:51.006Z,2.04
2018-01-14T01:16:18.451Z,1.99
2018-01-14T01:18:46.015Z,1.94
2018-01-14T01:21:13.597Z,1.94
2018-01-14T01:23:41.080Z,1.90
2018-01-14T01:26:08.561Z,1.82
2018-01-14T01:28:36.058Z,1.80
2018-01-14T01:31:03.559Z,1.84
2018-01-14T01:33:31.046Z,1.84
2018-01-14T01:35:59.625Z,1.86
2018-01-14T01:38:27.083Z,1.87
2018-01-14T01:40:54.629Z,2.01
2018-01-14T01:43:22.476Z,2.06
2018-01-14T01:45:49.980Z,2.04
2018-01-14T01:48:17.512Z,1.99
2018-01-14T01:50:44.973Z,1.93
2018-01-14T01:53:12.604Z,1.90
2018-01-14T01:55:40.189Z,1.88
2018-01-14T01:58:07.673Z,1.87
2018-01-14T02:00:35.328Z,1.83
2018-01-14T02:03:02.850Z,1.81
2018-01-14T02:05:30.298Z,1.81
2018-01-14T02:07:57.864Z,1.77
2018-01-14T02:10:25.483Z,1.73
2018-01-14T02:12:52.998Z,1.75
2018-01-14T02:15:20.469Z,1.76
2018-01-14T02:17:47.969Z,1.74
2018-01-14T02:20:15.439Z,1.77
2018-01-14T02:22:42.944Z,1.74
2018-01-14T02:25:10.502Z,1.72
2018-01-14T02:27:38.013Z,1.75
2018-01-14T02:30:05.575Z,1.72
2018-01-14T02:32:33.062Z,1.75
2018-01-14T02:35:00.579Z,1.73
2018-01-14T02:37:28.075Z,1.73
2018-01-14T02:39:55.590Z,1.71
2018-01-14T02:42:23.475Z,1.73
2018-01-14T02:44:50.938Z,1.75
2018-01-14T02:47:18.437Z,1.75
2018-01-14T02:49:45.929Z,1.79
2018-01-14T02:52:13.408Z,1.73
2018-01-14T02:54:40.946Z,1.71
2018-01-14T02:57:08.448Z,1.70
2018-01-14T02:59:36.184Z,1.73
2018-01-14T03:02:03.724Z,1.73
2018-01-14T03:04:31.205Z,1.72
2018-01-14T03:06:58.837Z,1.71
2018-01-14T03:09:26.306Z,1.79
2018-01-14T03:11:53.808Z,1.77
2018-01-14T03:14:21.259Z,1.78
2018-01-14T03:16:48.748Z,1.73
2018-01-14T03:19:16.227Z,1.73
2018-01-14T03:21:43.705Z,1.78
2018-01-14T03:24:12.143Z,1.76
2018-01-14T03:26:40.478Z,1.77
2018-01-14T03:29:08.027Z,1.70
2018-01-14T03:31:36.478Z,1.68
2018-01-14T03:34:04.069Z,1.62
2018-01-14T03:36:31.607Z,1.65
2018-01-14T03:38:59.107Z,1.64
2018-01-14T03:41:26.584Z,1.57
2018-01-14T03:43:54.147Z,1.57
2018-01-14T03:46:21.666Z,1.58
2018-01-14T03:48:49.207Z,1.56
2018-01-14T03:51:16.674Z,1.56
2018-01-14T03:53:44.149Z,1.56
2018-01-14T03:56:11.637Z,1.52
2018-01-14T03:58:39.114Z,1.48
2018-01-14T04:01:06.978Z,1.44
2018-01-14T04:03:35.666Z,1.45
2018-01-14T04:06:04.761Z,1.40
2018-01-14T04:08:32.238Z,1.38
2018-01-14T04:10:59.779Z,1.40
2018-01-14T04:13:27.254Z,1.40
2018-01-14T04:15:55.030Z,1.36
2018-01-14T04:18:22.498Z,1.38
2018-01-14T04:20:53.232Z,1.37
2018-01-14T04:23:20.782Z,1.36
2018-01-14T04:25:48.347Z,1.40
2018-01-14T04:28:15.889Z,1.40
2018-01-14T04:30:43.457Z,1.42
2018-01-14T04:33:11.009Z,1.44
2018-01-14T04:35:38.570Z,1.46
2018-01-14T04:38:06.867Z,1.49
2018-01-14T04:40:34.405Z,1.50
2018-01-14T04:43:07.168Z,1.47
2018-01-14T04:45:34.719Z,1.47
2018-01-14T04:48:02.925Z,1.49
2018-01-14T04:50:31.021Z,1.42
2018-01-14T04:52:59.399Z,1.42
2018-01-14T04:55:27.889Z,1.33
2018-01-14T04:57:55.510Z,1.25
2018-01-14T05:00:23.048Z,1.26
2018-01-14T05:02:50.564Z,1.16
2018-01-14T05:05:18.088Z,1.16
2018-01-14T05:07:45.553Z,1.17
2018-01-14T05:10:13.077Z,1.16
2018-01-14T05:12:40.621Z,1.14
2018-01-14T05:15:08.105Z,1.18
2018-01-14T05:17:35.606Z,1.18
2018-01-14T05:20:03.212Z,1.19
2018-01-14T05:22:30.687Z,1.19
2018-01-14T05:24:58.242Z,1.16
2018-01-14T05:27:25.804Z,1.18
2018-01-14T05:29:53.446Z,1.22
2018-01-14T05:32:20.936Z,1.15
2018-01-14T05:34:48.506Z,1.09
2018-01-14T05:37:16.009Z,1.10
2018-01-14T05:39:43.536Z,1.10
2018-01-14T05:42:11.011Z,1.10
2018-01-14T05:44:38.515Z,1.08
2018-01-14T05:47:06.010Z,1.07
2018-01-14T05:49:33.525Z,1.07
2018-01-14T05:52:00.999Z,1.07
2018-01-14T05:54:28.526Z,1.03
2018-01-14T05:56:56.094Z,1.08
2018-01-14T05:59:23.621Z,1.07
2018-01-14T06:01:51.085Z,1.07
2018-01-14T06:04:18.746Z,1.07
2018-01-14T06:06:46.265Z,1.07
2018-01-14T06:09:13.924Z,1.02
2018-01-14T06:11:41.427Z,1.00
2018-01-14T06:14:09.017Z,1.06
2018-01-14T06:16:36.620Z,1.06
2018-01-14T06:19:04.114Z,0.98
2018-01-14T06:21:31.607Z,0.93
2018-01-14T06:23:59.174Z,0.91
2018-01-14T06:26:26.686Z,0.89
2018-01-14T06:28:54.202Z,0.89
2018-01-14T06:31:21.792Z,0.89
2018-01-14T06:33:49.229Z,0.91
2018-01-14T06:36:16.764Z,0.94
2018-01-14T06:38:44.248Z,0.92
2018-01-14T06:41:11.801Z,0.93
2018-01-14T06:43:39.276Z,0.91
2018-01-14T06:46:06.838Z,0.88
2018-01-14T06:48:34.346Z,0.87
2018-01-14T06:51:02.138Z,0.91
2018-01-14T06:53:30.573Z,0.87
2018-01-14T06:55:58.126Z,0.88
2018-01-14T06:58:25.655Z,0.87
2018-01-14T07:00:53.150Z,0.84
2018-01-14T07:03:20.625Z,0.88
2018-01-14T07:05:48.094Z,0.82
2018-01-14T07:08:15.618Z,0.83
2018-01-14T07:10:43.094Z,0.78
2018-01-14T07:13:10.645Z,0.81
2018-01-14T07:15:38.320Z,0.78
2018-01-14T07:18:05.967Z,0.75
2018-01-14T07:20:33.517Z,0.79
2018-01-14T07:23:00.995Z,0.80
2018-01-14T07:25:28.595Z,0.81
2018-01-14T07:27:56.112Z,0.81
2018-01-14T07:30:23.587Z,0.81
2018-01-14T07:32:51.141Z,0.82
2018-01-14T07:35:18.646Z,0.84
2018-01-14T07:37:46.208Z,0.85
2018-01-14T07:40:13.954Z,0.84
2018-01-14T07:42:41.977Z,0.88
2018-01-14T07:45:09.565Z,0.87
2018-01-14T07:47:37.036Z,0.88
2018-01-14T07:50:05.229Z,0.88
2018-01-14T07:52:32.734Z,0.86
2018-01-14T07:55:00.226Z,0.87
2018-01-14T07:57:27.769Z,0.86
2018-01-14T07:59:55.262Z,0.86
2018-01-14T08:02:22.764Z,0.86
2018-01-14T08:04:50.279Z,0.92
2018-01-14T08:07:17.793Z,0.89
2018-01-14T08:09:45.380Z,0.91
2018-01-14T08:12:12.878Z,0.91
2018-01-14T08:14:45.451Z,0.92
2018-01-14T08:17:12.923Z,0.95
2018-01-14T08:19:40.475Z,0.98
2018-01-14T08:22:07.974Z,1.02
2018-01-14T08:24:35.720Z,1.07
2018-01-14T08:27:04.053Z,1.09
2018-01-14T08:29:31.678Z,1.09
2018-01-14T08:31:59.234Z,1.11
2018-01-14T08:34:26.784Z,1.11
2018-01-14T08:36:54.875Z,1.11
2018-01-14T08:39:22.390Z,1.14
2018-01-14T08:41:50.030Z,1.16
2018-01-14T08:44:17.675Z,1.17
2018-01-14T08:46:45.325Z,1.18
2018-01-14T08:49:12.846Z,1.28
2018-01-14T08:51:40.379Z,1.28
2018-01-14T08:54:12.904Z,1.34
2018-01-14T08:56:40.479Z,1.36
2018-01-14T08:59:08.016Z,1.39
2018-01-14T09:01:40.959Z,1.43
2018-01-14T09:04:08.433Z,1.43
2018-01-14T09:06:36.070Z,1.44
2018-01-14T09:09:04.626Z,1.51
2018-01-14T09:11:32.302Z,1.50
2018-01-14T09:13:59.891Z,1.60
2018-01-14T09:16:27.525Z,1.59
2018-01-14T09:18:55.026Z,1.64
2018-01-14T09:21:22.613Z,1.66
2018-01-14T09:23:51.375Z,1.71
2018-01-14T09:26:20.014Z,1.73
2018-01-14T09:28:47.926Z,1.73
2018-01-14T09:31:15.471Z,1.79
2018-01-14T09:33:43.110Z,1.88
2018-01-14T09:36:10.705Z,1.91
2018-01-14T09:38:38.234Z,2.00
2018-01-14T09:41:05.845Z,2.01
2018-01-14T09:43:33.555Z,2.04
2018-01-14T09:46:01.109Z,2.07
2018-01-14T09:48:28.698Z,2.05
2018-01-14T09:50:56.303Z,2.10
2018-01-14T09:53:23.795Z,2.14
2018-01-14T09:55:51.334Z,2.15
2018-01-14T09:58:18.858Z,2.17
2018-01-14T10:00:46.405Z,2.25
2018-01-14T10:03:19.909Z,2.27
2018-01-14T10:05:49.234Z,2.28
2018-01-14T10:08:16.813Z,2.41
2018-01-14T10:10:44.387Z,2.43
2018-01-14T10:13:11.934Z,2.43
2018-01-14T10:15:39.459Z,2.49
2018-01-14T10:18:06.921Z,2.45
2018-01-14T10:20:34.474Z,2.50
2018-01-14T10:23:02.019Z,2.53
2018-01-14T10:25:29.589Z,2.54
2018-01-14T10:27:57.149Z,2.56
2018-01-14T10:30:24.751Z,2.62
2018-01-14T10:32:52.252Z,2.68
2018-01-14T10:35:20.352Z,2.70
2018-01-14T10:37:47.840Z,2.72
2018-01-14T10:40:15.387Z,2.75
2018-01-14T10:42:43.147Z,2.78
2018-01-14T10:45:10.688Z,2.84
2018-01-14T10:47:38.248Z,2.85
2018-01-14T10:50:05.776Z,2.86
2018-01-14T10:52:33.259Z,2.90
2018-01-14T10:55:00.875Z,2.88
2018-01-14T10:57:28.506Z,2.91
2018-01-14T10:59:56.022Z,3.02
2018-01-14T11:02:23.594Z,2.94
2018-01-14T11:04:51.495Z,3.01
2018-01-14T11:07:19.068Z,3.03
2018-01-14T11:09:46.673Z,3.04
2018-01-14T11:12:14.255Z,3.09
2018-01-14T11:14:41.806Z,3.14
2018-01-14T11:17:09.400Z,3.23
2018-01-14T11:19:36.949Z,3.34
2018-01-14T11:22:04.440Z,3.31
2018-01-14T11:24:32.013Z,3.32
2018-01-14T11:26:59.483Z,3.37
2018-01-14T11:32:27.802Z,3.56
2018-01-14T11:34:55.404Z,3.67
2018-01-14T11:37:22.893Z,3.80
2018-01-14T11:39:50.448Z,4.01
2018-01-14T11:42:17.985Z,4.45
2018-01-14T11:44:45.513Z,4.95
2018-01-14T11:47:13.185Z,5.49
2018-01-14T11:49:41.144Z,5.69
2018-01-14T11:52:08.765Z,5.98
2018-01-14T11:54:36.363Z,6.34
2018-01-14T11:57:03.889Z,6.62
2018-01-14T11:59:31.398Z,6.84
2018-01-14T12:01:59.222Z,7.21
2018-01-14T12:04:31.794Z,7.52
2018-01-14T12:06:59.435Z,7.84
2018-01-14T12:09:26.953Z,7.86
2018-01-14T12:11:54.470Z,7.82
2018-01-14T12:14:22.021Z,7.67
2018-01-14T12:16:49.552Z,7.59
2018-01-14T12:19:17.657Z,7.76
2018-01-14T12:21:45.327Z,7.73
2018-01-14T12:24:12.873Z,7.16
2018-01-14T12:26:40.381Z,6.92
2018-01-14T12:29:07.928Z,6.53
2018-01-14T12:31:36.515Z,6.30
2018-01-14T12:34:35.632Z,5.96
2018-01-14T12:37:03.134Z,5.96
2018-01-14T12:39:30.799Z,6.20
2018-01-14T12:41:58.286Z,6.13
2018-01-14T12:44:25.815Z,6.11
2018-01-14T12:46:53.389Z,6.12
2018-01-14T12:49:20.923Z,6.11
2018-01-14T12:51:48.461Z,6.01
2018-01-14T12:54:25.742Z,5.77
2018-01-14T12:56:53.330Z,5.77
2018-01-14T12:59:20.961Z,5.77
2018-01-14T13:01:49.160Z,5.57
2018-01-14T13:04:19.455Z,5.44
2018-01-14T13:06:47.168Z,5.29
2018-01-14T13:09:14.780Z,5.22
2018-01-14T13:11:42.458Z,5.24
2018-01-14T13:14:10.025Z,4.98
2018-01-14T13:16:37.662Z,4.92
2018-01-14T13:19:06.379Z,4.74
2018-01-14T13:21:33.858Z,4.54
2018-01-14T13:24:01.401Z,4.40
2018-01-14T13:26:29.084Z,4.30
2018-01-14T13:28:56.681Z,4.22
2018-01-14T13:31:24.416Z,4.14
2018-01-14T13:33:51.943Z,4.09
2018-01-14T13:36:19.681Z,4.07
2018-01-14T13:38:47.212Z,4.05
2018-01-14T13:41:14.755Z,4.03
2018-01-14T13:43:42.274Z,3.94
2018-01-14T13:46:09.906Z,3.88
2018-01-14T13:48:37.497Z,3.90
2018-01-14T13:51:05.133Z,3.93
2018-01-14T13:53:32.725Z,3.92
2018-01-14T13:56:00.306Z,3.87
2018-01-14T13:58:27.782Z,3.85
2018-01-14T14:00:55.308Z,3.77
2018-01-14T14:03:23.199Z,3.77
2018-01-14T14:05:50.707Z,3.73
2018-01-14T14:08:18.270Z,3.69
2018-01-14T14:10:45.794Z,3.64
2018-01-14T14:13:13.341Z,3.64
2018-01-14T14:15:40.844Z,3.63
2018-01-14T14:18:08.347Z,3.87
2018-01-14T14:20:35.865Z,4.03
2018-01-14T14:23:03.356Z,4.02
2018-01-14T14:25:31.110Z,3.97
2018-01-14T14:27:58.647Z,3.88
2018-01-14T14:30:26.146Z,3.79
2018-01-14T14:32:53.639Z,3.70
2018-01-14T14:35:21.173Z,3.65
2018-01-14T14:37:50.416Z,3.57
2018-01-14T14:40:17.874Z,3.54
2018-01-14T14:42:45.385Z,3.48
2018-01-14T14:45:12.898Z,3.43
2018-01-14T14:47:40.499Z,3.39
2018-01-14T14:50:07.998Z,3.36
2018-01-14T14:52:35.865Z,3.33
2018-01-14T14:55:03.395Z,3.30
2018-01-14T14:57:30.877Z,3.24
2018-01-14T14:59:58.495Z,3.21
2018-01-14T15:02:26.093Z,3.16
2018-01-14T15:04:53.903Z,3.15
2018-01-14T15:07:21.539Z,3.10
2018-01-14T15:09:49.071Z,3.10
2018-01-14T15:12:16.729Z,3.07
2018-01-14T15:14:44.284Z,3.04
2018-01-14T15:17:11.776Z,2.99
2018-01-14T15:19:39.277Z,2.95
2018-01-14T15:22:06.967Z,2.95
2018-01-14T15:24:34.464Z,2.98
2018-01-14T15:27:02.116Z,2.96
2018-01-14T15:29:29.651Z,2.96
2018-01-14T15:31:57.137Z,2.93
2018-01-14T15:34:24.720Z,2.94
2018-01-14T15:36:52.225Z,2.91
2018-01-14T15:39:19.862Z,2.92
2018-01-14T15:41:47.368Z,2.94
2018-01-14T15:44:14.890Z,2.91
2018-01-14T15:46:42.427Z,2.88
2018-01-14T15:49:09.998Z,2.90
2018-01-14T15:51:37.471Z,2.88
2018-01-14T15:54:04.962Z,2.88
2018-01-14T15:56:32.486Z,2.84
2018-01-14T15:59:00.047Z,2.84
2018-01-14T16:01:27.747Z,2.86
2018-01-14T16:03:55.394Z,2.85
2018-01-14T16:06:22.918Z,2.83
2018-01-14T16:08:50.520Z,2.85
2018-01-14T16:11:18.010Z,2.86
2018-01-14T16:13:48.840Z,2.85
2018-01-14T16:16:16.552Z,2.88
2018-01-14T16:18:44.216Z,2.87
2018-01-14T16:21:11.710Z,2.87
2018-01-14T16:23:39.368Z,2.89
2018-01-14T16:26:06.856Z,2.88
2018-01-14T16:28:34.390Z,2.89
2018-01-14T16:31:01.947Z,2.89
2018-01-14T16:33:29.488Z,2.89
2018-01-14T16:35:57.011Z,2.88
2018-01-14T16:38:24.584Z,2.87
2018-01-14T16:40:52.099Z,2.86
2018-01-14T16:43:19.698Z,2.87
2018-01-14T16:45:47.217Z,2.86
2018-01-14T16:48:14.780Z,2.86
2018-01-14T16:50:42.269Z,2.87
2018-01-14T16:53:09.773Z,2.87
2018-01-14T16:55:37.294Z,2.87
2018-01-14T16:58:04.880Z,2.89
2018-01-14T17:00:32.373Z,2.87
2018-01-14T17:02:59.865Z,2.88
2018-01-14T17:05:27.451Z,2.88
2018-01-14T17:07:55.050Z,2.87
2018-01-14T17:10:22.624Z,2.87
2018-01-14T17:12:50.198Z,2.88
2018-01-14T17:15:17.729Z,2.87
2018-01-14T17:17:45.261Z,2.85
2018-01-14T17:20:12.753Z,2.86
2018-01-14T17:22:40.312Z,2.87
2018-01-14T17:25:07.970Z,2.86
2018-01-14T17:27:35.558Z,2.84
2018-01-14T17:30:03.096Z,2.84
2018-01-14T17:32:30.662Z,2.85
2018-01-14T17:34:58.112Z,2.86
2018-01-14T17:37:25.729Z,2.86
2018-01-14T17:39:53.302Z,2.86
2018-01-14T17:42:20.871Z,2.84
2018-01-14T17:44:48.776Z,2.85
2018-01-14T17:47:16.311Z,2.85
2018-01-14T17:49:44.028Z,2.86
2018-01-14T17:52:11.555Z,2.87
2018-01-14T17:54:39.138Z,2.87
2018-01-14T17:57:06.717Z,2.88
2018-01-14T17:59:34.306Z,2.86
2018-01-14T18:02:01.888Z,2.92
2018-01-14T18:04:29.475Z,2.90
2018-01-14T18:06:57.362Z,2.88
2018-01-14T18:09:24.938Z,2.89
2018-01-14T18:11:52.494Z,2.87
2018-01-14T18:14:20.161Z,2.85
2018-01-14T18:16:59.472Z,2.89
2018-01-14T18:19:27.055Z,2.92
2018-01-14T18:21:54.546Z,2.89
2018-01-14T18:24:22.042Z,2.87
2018-01-14T18:26:49.685Z,2.87
2018-01-14T18:29:17.196Z,2.86
2018-01-14T18:31:44.690Z,2.84
2018-01-14T18:34:12.197Z,2.83
2018-01-14T18:36:44.847Z,2.84
2018-01-14T18:39:12.415Z,2.81
2018-01-14T18:41:40.247Z,2.80
2018-01-14T18:44:07.776Z,2.80
2018-01-14T18:46:35.375Z,2.79
2018-01-14T18:49:02.988Z,2.79
2018-01-14T18:51:30.553Z,2.78
2018-01-14T18:53:58.050Z,2.80
2018-01-14T18:56:25.702Z,2.78
2018-01-14T18:58:53.260Z,2.76
2018-01-14T19:01:21.638Z,2.78
2018-01-14T19:03:49.261Z,2.82
2018-01-14T19:06:16.792Z,2.78
2018-01-14T19:08:44.353Z,2.79
2018-01-14T19:11:11.915Z,2.78
2018-01-14T19:13:39.712Z,2.78
2018-01-14T19:16:17.098Z,2.77
2018-01-14T19:18:44.691Z,2.77
2018-01-14T19:21:12.314Z,2.78
2018-01-14T19:23:39.913Z,2.77
2018-01-14T19:26:07.594Z,2.76
2018-01-14T19:28:35.088Z,2.76
2018-01-14T19:31:02.626Z,2.77
2018-01-14T19:33:30.180Z,2.76
2018-01-14T19:35:57.715Z,2.76
2018-01-14T19:38:25.234Z,2.76
2018-01-14T19:40:53.005Z,2.77
2018-01-14T19:43:20.612Z,2.76
2018-01-14T19:45:48.163Z,2.76
2018-01-14T19:48:15.781Z,2.76
2018-01-14T19:50:43.467Z,2.76
2018-01-14T19:53:11.053Z,2.75
2018-01-14T19:55:38.717Z,2.74
2018-01-14T19:58:06.208Z,2.76
2018-01-14T20:00:34.848Z,2.73
2018-01-14T20:03:02.435Z,2.72
2018-01-14T20:05:29.980Z,2.72
2018-01-14T20:07:57.587Z,2.72
2018-01-14T20:10:25.285Z,2.72
2018-01-14T20:12:52.810Z,2.72
2018-01-14T20:15:20.329Z,2.71
2018-01-14T20:17:48.808Z,2.72
2018-01-14T20:20:16.727Z,2.70
2018-01-14T20:22:44.271Z,2.71
2018-01-14T20:25:11.933Z,2.69
2018-01-14T20:27:39.488Z,2.70
2018-01-14T20:30:07.034Z,2.70
2018-01-14T20:32:35.003Z,2.69
2018-01-14T20:35:02.510Z,2.70
2018-01-14T20:37:30.040Z,2.71
2018-01-14T20:39:57.735Z,2.72
2018-01-14T20:42:26.150Z,2.71
2018-01-14T20:44:55.506Z,2.72
2018-01-14T20:47:23.105Z,2.74
2018-01-14T20:49:50.976Z,2.73
2018-01-14T20:52:18.581Z,2.72
2018-01-14T20:54:46.274Z,2.73
2018-01-14T20:57:14.035Z,2.71
2018-01-14T20:59:41.558Z,2.70
2018-01-14T21:02:09.101Z,2.74
2018-01-14T21:04:36.728Z,2.73
2018-01-14T21:07:04.235Z,2.72
2018-01-14T21:09:31.776Z,2.72
2018-01-14T21:12:00.164Z,2.71
2018-01-14T21:14:27.782Z,2.71
2018-01-14T21:16:55.304Z,2.71
2018-01-14T21:19:22.864Z,2.70
2018-01-14T21:21:50.366Z,2.69
2018-01-14T21:24:17.916Z,2.69
2018-01-14T21:26:45.481Z,2.69
2018-01-14T21:29:12.995Z,2.69
2018-01-14T21:31:40.654Z,2.69
2018-01-14T21:34:08.276Z,2.69
2018-01-14T21:36:36.098Z,2.69
2018-01-14T21:39:03.801Z,2.69
2018-01-14T21:41:31.795Z,2.67
2018-01-14T21:43:59.308Z,2.70
2018-01-14T21:46:26.826Z,2.67
2018-01-14T21:48:54.322Z,2.68
2018-01-14T21:51:21.964Z,2.70
2018-01-14T21:53:49.728Z,2.68
2018-01-14T21:56:17.200Z,2.69
2018-01-14T21:58:44.729Z,2.68
2018-01-14T22:01:12.384Z,2.70
2018-01-14T22:03:40.969Z,2.68
2018-01-14T22:06:08.579Z,2.68
2018-01-14T22:08:36.182Z,2.70
2018-01-14T22:11:03.802Z,2.69
2018-01-14T22:13:31.308Z,2.71
2018-01-14T22:15:58.868Z,2.73
2018-01-14T22:18:26.364Z,2.77
2018-01-14T22:20:54.502Z,2.79
2018-01-14T22:23:22.018Z,2.80
2018-01-14T22:25:50.440Z,2.79
2018-01-14T22:28:18.005Z,2.78
2018-01-14T22:30:45.565Z,2.80
2018-01-14T22:33:13.068Z,2.80
2018-01-14T22:35:40.889Z,2.80
2018-01-14T22:38:08.459Z,2.79
2018-01-14T22:40:35.971Z,2.80
2018-01-14T22:43:03.493Z,2.80
2018-01-14T22:45:31.004Z,2.80
2018-01-14T22:47:58.525Z,2.82
2018-01-14T22:50:26.082Z,2.85
2018-01-14T22:52:53.712Z,2.84
2018-01-14T22:55:21.235Z,2.83
2018-01-14T22:57:48.725Z,2.82
2018-01-14T23:00:17.134Z,2.84
2018-01-14T23:02:44.795Z,2.83
2018-01-14T23:05:17.283Z,2.82
2018-01-14T23:07:44.763Z,2.85
2018-01-14T23:10:12.309Z,2.86
2018-01-14T23:12:39.941Z,2.87
2018-01-14T23:15:08.361Z,2.87
2018-01-14T23:17:35.894Z,2.89
2018-01-14T23:20:03.760Z,2.89
2018-01-14T23:22:31.399Z,2.90
2018-01-14T23:24:58.984Z,2.92
2018-01-14T23:27:26.545Z,2.94
2018-01-14T23:29:54.079Z,2.96
2018-01-14T23:32:21.598Z,3.02
2018-01-14T23:34:49.088Z,3.02
2018-01-14T23:37:16.923Z,3.02
2018-01-14T23:39:44.450Z,3.06
2018-01-14T23:42:12.123Z,3.07
2018-01-14T23:44:39.718Z,3.11
2018-01-14T23:47:07.333Z,3.13
2018-01-14T23:49:34.998Z,3.15
2018-01-14T23:52:02.629Z,3.21
2018-01-14T23:54:30.194Z,3.21
2018-01-14T23:56:57.842Z,3.22
2018-01-14T23:59:25.372Z,3.23
